Clark, WY

4:28 PM MST on December 03, 2016 (GMT -0700)
HADS | | Change Station

Elev 4708 ft 44.79 °N, 109.18 °W | Updated 28 minutes ago

Clear
Clear
0.0 °F
Feels Like -20 °F
N
17.0
Wind Variable Wind from WNW
Gusts 23.0 mph

Today
High -- | Low -- °F
--% Chance of Precip.
Yesterday
High -- | Low -- °F
Precip. -- in
Pressure 30.04 in
Visibility 10.0 miles
Clouds Clear
Windchill -20 °F
Dew Point Not available.
Humidity Not available.
Rainfall in
Snow Depth Not available.
7:36 AM 4:36 PM
Waxing Crescent, 18% visible
METAR KCOD 032256Z AUTO 27013G26KT 10SM CLR 02/M13 A2996 RMK AO2 PK WND 24027/2228 SLP173 T00171128 FZRANO
Pressure 30.04 in
Visibility 10.0 miles
Clouds Clear
Windchill -20 °F
Dew Point Not available.
Humidity Not available.
Rainfall in
Snow Depth Not available.
7:36 AM 4:36 PM
Waxing Crescent, 18% visible
METAR KCOD 032256Z AUTO 27013G26KT 10SM CLR 02/M13 A2996 RMK AO2 PK WND 24027/2228 SLP173 T00171128 FZRANO

10-Day Weather Forecast

Almanac

Astronomy

Dec. 03, 2016 Rise Set
Actual Time
Civil Twilight
Nautical Twilight
Astronomical Twilight
Moon
Length of Visible Light
Length of Day
Tomorrow will be .
, % of the Moon is Illuminated

Today's Extremes

State Highs State Lows

Community

WunderPhotos

Upload Photos

1,955,540 photos uploaded!

WunderBlog® & News

Nearby

Air Quality

  Air Quality AQ Index Pollutant
Not available.

Snow Depth

Station Depth Elevation

Earthquake Activity

City Distance Mag. Time & Date
Minimum magnitude displayed is 2.5.

Coastal Water Temperatures

Place Temperature

Stations

Nearby Weather Stations

Station Location Temp. Windchill Dew Point Humidity Wind Precip. Elev Updated Type
                   

Watches & Warnings

There are currently no watches in effect.